Time;durP1;ratioP1;P1;durP2;ratioP2;P2;SDS_P1;SDS_P2;PMS_P1;PMS_P2;Temp;Humidity;BMP_temperature;BMP_pressure;BME280_temperature;BME280_humidity;BME280_pressure;Samples;Min_cycle;Max_cycle;Signal;HPM_P1;HPM_P2
2021/12/08 00:00:53;;;;;;;10.13;1.80;;;6.20;99.80;;;4.47;100.00;98399.53;4971817;28;20089;-83
2021/12/08 00:03:23;;;;;;;6.28;1.73;;;6.20;99.70;;;4.48;100.00;98391.25;4987698;28;20577;-83
2021/12/08 00:05:51;;;;;;;6.78;1.90;;;6.20;99.60;;;4.51;100.00;98400.78;4972692;28;20094;-83
2021/12/08 00:08:22;;;;;;;6.60;1.77;;;6.20;99.40;;;4.50;100.00;98377.59;4989869;28;20141;-83
2021/12/08 00:13:01;;;;;;;12.38;1.92;;;6.20;99.80;;;4.48;100.00;98385.88;4991297;28;20057;-83
2021/12/08 00:13:40;;;;;;;6.18;1.80;;;6.20;99.60;;;4.54;100.00;98378.84;4990675;28;20050;-83
2021/12/08 00:16:11;;;;;;;6.53;1.95;;;6.20;99.70;;;4.54;100.00;98389.63;4990753;28;20477;-83
2021/12/08 00:18:45;;;;;;;4.80;1.52;;;6.10;99.50;;;4.57;100.00;98386.56;4991001;28;20089;-83
2021/12/08 00:21:13;;;;;;;7.05;1.90;;;6.10;99.40;;;4.57;100.00;98375.78;4989746;28;20104;-83
2021/12/08 00:23:41;;;;;;;6.20;1.80;;;6.20;99.70;;;4.60;100.00;98383.44;4973924;28;20070;-83
2021/12/08 00:26:09;;;;;;;5.32;1.52;;;6.10;99.70;;;4.57;100.00;98393.78;4970880;28;20130;-83
2021/12/08 00:28:37;;;;;;;6.65;1.90;;;6.20;99.60;;;4.59;100.00;98386.31;4971186;28;20051;-83
2021/12/08 00:31:07;;;;;;;8.10;2.00;;;6.20;99.70;;;4.64;100.00;98384.69;4971090;28;20047;-83
2021/12/08 00:33:36;;;;;;;6.57;2.13;;;6.30;99.50;;;4.68;100.00;98369.81;4975622;28;20046;-83
2021/12/08 00:36:09;;;;;;;8.70;2.03;;;6.30;99.60;;;4.73;100.00;98376.47;4988929;28;20426;-82
2021/12/08 00:38:36;;;;;;;5.20;1.70;;;6.30;99.80;;;4.75;100.00;98380.63;4974529;28;20053;-83
2021/12/08 00:41:04;;;;;;;5.78;1.58;;;6.30;99.90;;;4.72;100.00;98372.94;4970390;28;20514;-83
2021/12/08 00:43:31;;;;;;;7.93;1.85;;;6.30;99.90;;;4.72;100.00;98372.09;4970793;28;20045;-83
2021/12/08 00:45:58;;;;;;;7.10;1.90;;;6.30;99.90;;;4.75;100.00;98379.81;4970651;28;20125;-83
2021/12/08 00:48:27;;;;;;;6.57;2.08;;;6.30;99.90;;;4.76;100.00;98371.53;4970977;28;20054;-83
2021/12/08 00:50:55;;;;;;;8.25;1.90;;;6.30;99.90;;;4.76;100.00;98379.59;4971518;28;20085;-83
2021/12/08 00:53:22;;;;;;;6.38;1.90;;;6.30;99.90;;;4.75;100.00;98386.00;4990196;28;20046;-83
2021/12/08 00:55:49;;;;;;;5.18;1.70;;;6.30;99.90;;;4.73;100.00;98371.09;4971937;28;20109;-83
2021/12/08 00:58:17;;;;;;;4.70;1.75;;;6.30;99.90;;;4.70;100.00;98367.75;4970689;28;20170;-83
2021/12/08 01:00:50;;;;;;;6.97;1.73;;;6.30;99.90;;;4.70;100.00;98367.75;4988793;28;20409;-84
2021/12/08 01:03:19;;;;;;;5.80;2.00;;;6.30;99.90;;;4.75;100.00;98366.31;4990008;28;20085;-83
2021/12/08 01:05:52;;;;;;;6.20;1.88;;;6.30;99.90;;;4.72;100.00;98361.31;4989570;28;20145;-84
2021/12/08 01:08:22;;;;;;;7.85;2.25;;;6.30;99.90;;;4.70;100.00;98373.16;4989892;28;20147;-84
2021/12/08 01:10:55;;;;;;;6.10;1.65;;;6.30;99.90;;;4.69;100.00;98397.59;4986880;28;20121;-84
2021/12/08 01:13:25;;;;;;;7.07;1.98;;;6.30;99.90;;;4.72;100.00;98385.56;4970448;28;20059;-84
2021/12/08 01:15:56;;;;;;;4.63;1.70;;;6.30;99.90;;;4.74;100.00;98378.97;4970011;28;20074;-84
2021/12/08 01:18:24;;;;;;;4.88;1.88;;;6.30;99.90;;;4.77;100.00;98391.22;4970401;28;20129;-84
2021/12/08 01:20:56;;;;;;;4.45;1.40;;;6.30;99.90;;;4.73;100.00;98382.69;4970456;28;20043;-84
2021/12/08 01:23:25;;;;;;;5.03;1.95;;;6.40;99.90;;;4.72;100.00;98382.88;4970239;28;20050;-84
2021/12/08 01:25:52;;;;;;;5.68;1.73;;;6.40;99.90;;;4.73;100.00;98396.16;4970135;28;20074;-84
2021/12/08 01:28:22;;;;;;;6.05;1.98;;;6.40;99.90;;;4.74;100.00;98394.28;4989472;28;20081;-84
2021/12/08 01:30:51;;;;;;;6.05;2.13;;;6.50;99.90;;;4.74;100.00;98383.50;4970189;28;20058;-84
2021/12/08 01:33:21;;;;;;;5.63;1.80;;;6.50;99.90;;;4.72;100.00;98388.28;4971125;28;20050;-84
2021/12/08 01:35:48;;;;;;;6.60;2.30;;;6.40;99.90;;;4.74;100.00;98399.69;4989150;28;20081;-84
2021/12/08 01:38:17;;;;;;;7.30;2.25;;;6.30;99.90;;;4.69;100.00;98376.88;4989300;28;20050;-84
2021/12/08 01:40:45;;;;;;;7.65;2.00;;;6.40;99.90;;;4.69;100.00;98384.94;4989215;28;20066;-84
2021/12/08 01:43:24;;;;;;;9.90;1.92;;;6.30;99.90;;;4.72;100.00;98382.88;4988106;28;20069;-84
2021/12/08 01:45:59;;;;;;;4.90;1.70;;;6.40;99.90;;;4.75;100.00;98393.28;4970756;28;20526;-84
2021/12/08 01:48:32;;;;;;;5.50;1.90;;;6.40;99.90;;;4.80;100.00;98385.44;4969687;28;20133;-84
2021/12/08 01:51:04;;;;;;;7.60;2.10;;;6.40;99.90;;;4.77;100.00;98393.91;4969175;28;20142;-84
2021/12/08 01:53:33;;;;;;;7.30;2.10;;;6.40;99.90;;;4.77;100.00;98388.50;4986770;28;20145;-84
2021/12/08 01:56:01;;;;;;;5.18;1.98;;;6.40;99.90;;;4.79;100.00;98408.00;4988994;28;20589;-84
2021/12/08 01:58:29;;;;;;;5.47;1.75;;;6.40;99.90;;;4.81;100.00;98400.56;4989139;28;20047;-84
2021/12/08 02:01:00;;;;;;;6.13;1.90;;;6.40;99.90;;;4.79;100.00;98402.63;4970346;28;20513;-84
2021/12/08 02:03:31;;;;;;;6.50;1.92;;;6.40;99.90;;;4.78;100.00;98384.78;4987360;28;20096;-84
2021/12/08 02:06:02;;;;;;;4.30;1.73;;;6.50;99.90;;;4.81;100.00;98390.59;4988370;28;20046;-84
2021/12/08 02:08:31;;;;;;;5.30;1.80;;;6.50;99.90;;;4.78;100.00;98396.41;4969582;28;20293;-84
2021/12/08 02:11:02;;;;;;;4.32;1.77;;;6.50;99.90;;;4.82;100.00;98391.44;4969327;28;20055;-84
2021/12/08 02:13:35;;;;;;;4.65;1.55;;;6.50;99.90;;;4.86;100.00;98387.31;4968809;28;20039;-84
2021/12/08 02:16:06;;;;;;;4.57;1.50;;;6.50;99.90;;;4.87;100.00;98381.72;4968859;28;20451;-84
2021/12/08 02:18:33;;;;;;;7.22;1.75;;;6.60;99.90;;;4.86;100.00;98388.13;4988523;28;20050;-84
2021/12/08 02:21:04;;;;;;;6.18;2.00;;;6.50;99.90;;;4.87;100.00;98375.50;4969181;28;20042;-84
2021/12/08 02:23:32;;;;;;;4.25;1.40;;;6.50;99.90;;;4.93;100.00;98388.19;4969402;28;20137;-84
2021/12/08 02:25:59;;;;;;;3.03;1.42;;;6.60;99.90;;;4.95;100.00;98387.97;4969191;28;20083;-84
2021/12/08 02:28:27;;;;;;;6.18;1.40;;;6.60;99.90;;;4.99;100.00;98403.53;4969755;28;20515;-84
2021/12/08 02:31:00;;;;;;;3.70;1.52;;;6.60;99.90;;;5.01;100.00;98390.69;4969360;28;20047;-83
2021/12/08 02:47:30;;;;;;;4.32;1.50;;;6.70;99.90;;;5.17;100.00;98407.56;4988654;28;20556;-83
2021/12/08 02:49:58;;;;;;;3.55;1.40;;;6.70;99.90;;;5.15;100.00;98401.53;4987419;28;20042;-83
2021/12/08 02:52:27;;;;;;;5.05;1.30;;;6.70;99.90;;;5.16;100.00;98409.44;4981824;28;20053;-83
2021/12/08 02:54:54;;;;;;;4.90;1.48;;;6.80;99.90;;;5.16;100.00;98406.72;4968862;28;20129;-83
2021/12/08 02:57:27;;;;;;;3.28;1.40;;;6.80;99.90;;;5.18;100.00;98414.59;4969259;28;20158;-83
2021/12/08 02:59:55;;;;;;;3.67;1.33;;;6.80;99.90;;;5.21;100.00;98411.50;4969293;28;20065;-83
2021/12/08 03:02:22;;;;;;;4.65;1.48;;;6.80;99.90;;;5.26;100.00;98415.25;4987962;28;20042;-83
2021/12/08 03:04:49;;;;;;;3.45;1.30;;;6.80;99.90;;;5.29;100.00;98424.78;4990773;28;20555;-83
2021/12/08 03:07:17;;;;;;;3.60;1.40;;;6.80;99.90;;;5.26;100.00;98422.53;4987396;28;20126;-83
2021/12/08 03:09:46;;;;;;;4.28;1.48;;;6.80;99.90;;;5.26;100.00;98419.81;4991846;28;20142;-83
2021/12/08 03:12:13;;;;;;;3.50;1.38;;;6.90;99.90;;;5.25;100.00;98424.41;4992112;28;20086;-83
2021/12/08 03:14:41;;;;;;;4.18;1.30;;;6.90;99.90;;;5.34;100.00;98426.91;5035653;22;20109;-83
2021/12/08 03:17:10;;;;;;;3.63;1.20;;;6.90;99.90;;;5.38;100.00;98436.25;5029569;28;20390;-83
2021/12/08 03:19:38;;;;;;;2.65;1.30;;;6.90;99.90;;;5.36;100.00;98431.06;5042319;28;20052;-83
2021/12/08 03:22:10;;;;;;;4.43;1.50;;;6.90;99.90;;;5.36;100.00;98430.22;5057704;28;20053;-83
2021/12/08 03:24:40;;;;;;;4.18;1.10;;;6.90;99.90;;;5.32;100.00;98435.19;5067207;28;20040;-83
2021/12/08 03:27:12;;;;;;;2.83;1.20;;;6.90;99.90;;;5.34;100.00;98438.50;5070812;28;20522;-83
2021/12/08 03:29:48;;;;;;;2.83;1.13;;;7.00;99.90;;;5.39;100.00;98443.31;5070918;28;20113;-83
2021/12/08 03:32:18;;;;;;;3.95;1.23;;;7.00;99.90;;;5.43;100.00;98441.88;5070791;28;20570;-84
2021/12/08 03:34:51;;;;;;;3.17;1.13;;;7.00;99.90;;;5.46;100.00;98436.06;5055763;28;20477;-84
2021/12/08 03:37:22;;;;;;;3.90;1.20;;;7.00;99.90;;;5.48;100.00;98442.94;5055268;28;20306;-83
2021/12/08 03:39:50;;;;;;;3.05;1.40;;;7.00;99.90;;;5.48;100.00;98452.88;5062200;28;20558;-83
2021/12/08 03:42:23;;;;;;;4.00;1.35;;;7.00;99.90;;;5.45;100.00;98451.41;5070519;28;20040;-83
2021/12/08 03:44:53;;;;;;;5.43;1.40;;;7.00;99.90;;;5.45;100.00;98467.59;5070230;28;20036;-83
2021/12/08 03:47:26;;;;;;;4.30;1.40;;;7.00;99.90;;;5.44;100.00;98455.13;5052469;28;20076;-83
2021/12/08 03:49:55;;;;;;;4.28;1.60;;;7.00;99.90;;;5.48;100.00;98467.22;5070546;28;20147;-83
2021/12/08 03:52:23;;;;;;;3.92;1.50;;;7.00;99.90;;;5.48;100.00;98469.06;5070462;28;20047;-84
2021/12/08 03:54:51;;;;;;;3.92;1.40;;;7.00;99.90;;;5.45;100.00;98466.78;5061798;28;20045;-83
2021/12/08 03:57:19;;;;;;;4.38;1.60;;;7.00;99.90;;;5.41;100.00;98455.56;5052093;28;20718;-83
2021/12/08 03:59:47;;;;;;;4.78;1.52;;;7.00;99.90;;;5.37;100.00;98469.63;5060058;28;20049;-83
2021/12/08 04:02:14;;;;;;;4.60;1.42;;;7.00;99.90;;;5.33;100.00;98469.22;5050408;28;20123;-83
2021/12/08 04:04:45;;;;;;;3.63;1.70;;;7.00;99.90;;;5.35;100.00;98471.72;5049951;28;20063;-84
2021/12/08 04:07:14;;;;;;;4.93;1.40;;;7.00;99.90;;;5.35;100.00;98477.94;5060291;28;20054;-84
2021/12/08 04:09:44;;;;;;;5.18;1.48;;;7.00;99.90;;;5.38;100.00;98476.72;5070288;28;20047;-84
2021/12/08 04:12:17;;;;;;;5.93;1.42;;;7.00;99.90;;;5.39;100.00;98470.28;5058662;28;20037;-83
2021/12/08 04:14:50;;;;;;;5.70;1.50;;;7.00;99.90;;;5.42;100.00;98476.09;5066324;28;20078;-83
2021/12/08 04:17:22;;;;;;;5.50;1.65;;;7.10;99.90;;;5.33;100.00;98474.63;5070287;28;20130;-83
2021/12/08 04:19:50;;;;;;;7.13;1.80;;;7.10;99.90;;;5.34;100.00;98470.88;5070090;28;20076;-83
2021/12/08 04:22:28;;;;;;;4.30;1.70;;;7.10;99.90;;;5.38;100.00;98472.13;5069893;28;20064;-83
2021/12/08 04:24:56;;;;;;;4.50;1.40;;;7.10;99.90;;;5.32;100.00;98462.16;5069748;28;20059;-83
2021/12/08 04:27:31;;;;;;;4.63;1.60;;;7.10;99.90;;;5.38;100.00;98477.53;5061056;28;20076;-83
2021/12/08 04:30:00;;;;;;;5.38;1.30;;;7.10;99.90;;;5.41;100.00;98469.03;5069336;28;20068;-83
2021/12/08 04:32:32;;;;;;;8.20;1.85;;;7.10;99.90;;;5.42;100.00;98468.00;5069836;28;20147;-84
2021/12/08 04:35:01;;;;;;;7.10;1.70;;;7.10;99.90;;;5.44;100.00;98465.94;5034566;28;20106;-84
2021/12/08 04:37:34;;;;;;;4.97;1.60;;;7.10;99.90;;;5.46;100.00;98463.03;5049752;28;20136;-83
2021/12/08 04:40:16;;;;;;;5.30;1.45;;;7.00;99.90;;;5.48;100.00;98461.81;5049766;28;20049;-84
2021/12/08 04:42:56;;;;;;;6.35;1.92;;;7.00;99.90;;;5.51;100.00;98457.88;5049355;28;20787;-84
2021/12/08 04:45:38;;;;;;;6.13;1.73;;;7.00;99.90;;;5.49;100.00;98474.25;5060827;28;20094;-84
2021/12/08 04:48:21;;;;;;;10.85;3.40;;;7.00;99.90;;;5.50;100.00;98464.28;5069560;28;20054;-83
2021/12/08 04:54:01;;;;;;;9.15;3.70;;;7.00;99.90;;;5.49;100.00;98478.81;5042881;28;20067;-83
2021/12/08 05:02:19;;;;;;;5.63;2.03;;;7.00;99.90;;;5.48;100.00;98482.53;5060677;28;20448;-85
2021/12/08 05:05:03;;;;;;;6.55;1.80;;;7.10;99.90;;;5.51;100.00;98486.72;5068729;28;20110;-83
2021/12/08 05:07:46;;;;;;;8.02;2.00;;;7.10;99.90;;;5.52;100.00;98489.22;5069026;28;20055;-83
2021/12/08 05:10:20;;;;;;;5.47;1.63;;;7.10;99.90;;;5.51;100.00;98492.94;5069184;28;20054;-83
2021/12/08 05:12:52;;;;;;;9.50;1.60;;;7.10;99.90;;;5.51;100.00;98498.34;5069145;28;20127;-83
2021/12/08 05:15:24;;;;;;;7.03;1.70;;;7.10;99.90;;;5.51;100.00;98492.13;5063723;28;20051;-84
2021/12/08 05:18:00;;;;;;;9.25;1.90;;;7.10;99.90;;;5.54;100.00;98510.59;5060634;28;20121;-83
2021/12/08 05:20:38;;;;;;;5.88;1.67;;;7.10;99.90;;;5.54;100.00;98508.75;5068789;28;20167;-83
2021/12/08 05:23:10;;;;;;;4.18;1.52;;;7.10;99.90;;;5.56;100.00;98512.06;5068851;28;20044;-83
2021/12/08 05:25:40;;;;;;;7.70;1.70;;;7.10;99.90;;;5.60;100.00;98512.50;5068364;28;20447;-83
2021/12/08 05:28:13;;;;;;;9.07;1.67;;;7.10;99.90;;;5.62;100.00;98519.34;5068648;28;20037;-83
2021/12/08 05:30:47;;;;;;;6.68;1.85;;;7.10;99.90;;;5.64;100.00;98513.75;5058840;28;20072;-84
2021/12/08 05:33:16;;;;;;;5.85;1.70;;;7.20;99.90;;;5.63;100.00;98512.06;5058050;28;20127;-83
2021/12/08 05:35:46;;;;;;;10.93;2.10;;;7.30;99.90;;;5.61;100.00;98520.38;5048035;28;20048;-84
2021/12/08 05:38:14;;;;;;;7.40;1.75;;;7.10;99.90;;;5.65;100.00;98531.59;5048666;28;20073;-83
2021/12/08 05:40:48;;;;;;;7.60;1.75;;;7.20;99.90;;;5.66;100.00;98533.28;5048599;28;20135;-83
2021/12/08 05:43:16;;;;;;;7.55;2.00;;;7.20;99.90;;;5.62;100.00;98540.13;5048742;28;20064;-83
2021/12/08 05:45:46;;;;;;;8.25;1.90;;;7.20;99.90;;;5.63;100.00;98534.50;5048153;28;20047;-83
2021/12/08 05:48:15;;;;;;;6.38;1.83;;;7.20;99.90;;;5.63;100.00;98526.41;5047516;28;20064;-83
2021/12/08 05:50:47;;;;;;;6.82;1.77;;;7.20;99.90;;;5.64;100.00;98533.47;5057370;28;20128;-83
2021/12/08 05:53:15;;;;;;;9.90;1.90;;;7.20;99.90;;;5.64;100.00;98538.88;5068416;28;20056;-83
2021/12/08 05:55:45;;;;;;;11.00;2.13;;;7.20;99.90;;;5.64;100.00;98540.75;5045633;28;20045;-83
2021/12/08 05:58:14;;;;;;;6.93;1.90;;;7.20;99.90;;;5.66;100.00;98538.66;5048444;28;20044;-83
2021/12/08 06:00:47;;;;;;;7.13;1.90;;;7.20;99.90;;;5.67;100.00;98534.91;5048410;28;20127;-83
2021/12/08 06:03:19;;;;;;;8.23;2.13;;;7.20;99.90;;;5.66;100.00;98531.41;5048743;28;20619;-83
2021/12/08 06:05:49;;;;;;;9.25;2.10;;;7.20;99.90;;;5.66;100.00;98536.78;5048153;28;20125;-84
2021/12/08 06:08:17;;;;;;;6.33;2.00;;;7.20;99.90;;;5.64;100.00;98527.25;5062529;28;20120;-83
2021/12/08 06:10:47;;;;;;;11.95;2.22;;;7.30;99.90;;;5.61;100.00;98536.56;5048257;28;20835;-84
2021/12/08 06:13:17;;;;;;;10.05;1.83;;;7.20;99.90;;;5.64;100.00;98541.56;5048792;28;20127;-85
2021/12/08 06:15:47;;;;;;;5.30;2.05;;;7.20;99.90;;;5.67;100.00;98551.13;5048029;28;20044;-85
2021/12/08 06:18:20;;;;;;;10.27;2.00;;;7.20;99.90;;;5.67;100.00;98548.41;5046847;28;20069;-84
2021/12/08 06:20:48;;;;;;;9.85;2.00;;;7.20;99.90;;;5.68;100.00;98552.78;5048105;28;20513;-85
2021/12/08 06:23:15;;;;;;;7.50;2.33;;;7.30;99.90;;;5.67;100.00;98559.22;5052014;28;20123;-85
2021/12/08 06:25:42;;;;;;;5.72;1.92;;;7.20;99.90;;;5.72;100.00;98564.03;5059321;28;20048;-86
2021/12/08 06:28:10;;;;;;;6.43;2.03;;;7.20;99.90;;;5.66;100.00;98561.09;5068047;28;20048;-84
2021/12/08 06:30:41;;;;;;;8.60;2.10;;;7.30;99.90;;;5.67;100.00;98562.75;5068018;28;20053;-85
2021/12/08 06:33:08;;;;;;;8.97;2.13;;;7.30;99.90;;;5.64;100.00;98551.53;5066940;28;20123;-84
2021/12/08 06:35:43;;;;;;;11.95;2.40;;;7.30;99.90;;;5.58;100.00;98552.31;5047491;28;20386;-84
2021/12/08 06:38:12;;;;;;;8.82;2.08;;;7.20;99.90;;;5.55;100.00;98553.56;5034937;28;20057;-84
2021/12/08 06:40:46;;;;;;;6.70;2.10;;;7.20;99.90;;;5.57;100.00;98553.38;5063466;28;20047;-85
2021/12/08 06:43:20;;;;;;;7.30;2.10;;;7.20;99.90;;;5.51;100.00;98556.88;5071887;28;20114;-85
2021/12/08 06:45:52;;;;;;;7.90;2.00;;;7.20;99.90;;;5.52;100.00;98558.53;5071525;28;20048;-85
2021/12/08 06:48:22;;;;;;;;;;;7.20;99.90;;;5.53;100.00;98568.28;5054278;28;20135;-85
2021/12/08 06:50:57;;;;;;;6.35;2.10;;;7.20;99.90;;;5.49;100.00;98574.06;5071828;28;19970;-85
2021/12/08 06:53:25;;;;;;;8.88;2.03;;;7.10;99.90;;;5.49;100.00;98565.97;5071778;28;20500;-85
2021/12/08 06:55:58;;;;;;;9.13;1.95;;;7.20;99.90;;;5.52;100.00;98561.22;5061753;28;20699;-85
2021/12/08 06:58:32;;;;;;;10.48;2.08;;;7.20;99.90;;;5.56;100.00;98565.19;5051570;28;20053;-85
2021/12/08 07:01:15;;;;;;;7.00;1.88;;;7.20;99.90;;;5.57;100.00;98567.69;5051295;28;20572;-85
2021/12/08 07:03:52;;;;;;;7.03;2.03;;;7.20;99.90;;;5.58;100.00;98571.19;5051471;28;20448;-85
2021/12/08 07:06:42;;;;;;;9.93;1.83;;;7.20;99.90;;;5.61;100.00;98570.81;5056320;28;20044;-85
2021/12/08 07:09:15;;;;;;;7.28;2.08;;;7.20;99.90;;;5.64;100.00;98578.53;5071192;28;20048;-85
2021/12/08 07:11:44;;;;;;;7.68;1.98;;;7.20;99.90;;;5.63;100.00;98593.03;5068868;28;20120;-85
2021/12/08 07:14:14;;;;;;;8.55;2.10;;;7.20;99.90;;;5.62;100.00;98594.09;5062406;28;20101;-85
2021/12/08 07:16:46;;;;;;;9.20;2.15;;;7.30;99.90;;;5.64;100.00;98594.72;5071193;28;20051;-86
2021/12/08 07:19:27;;;;;;;10.27;3.00;;;7.20;99.90;;;5.62;100.00;98599.47;5071212;28;20103;-85
2021/12/08 07:21:59;;;;;;;11.45;2.85;;;7.20;99.90;;;5.63;100.00;98603.81;5071524;28;20493;-87
2021/12/08 07:24:32;;;;;;;11.00;2.47;;;7.20;99.90;;;5.60;100.00;98604.25;5052861;28;20723;-88
2021/12/08 07:27:07;;;;;;;11.52;2.35;;;7.30;99.90;;;5.60;100.00;98593.44;5037843;28;20064;-85
2021/12/08 07:32:24;;;;;;;11.52;2.63;;;7.30;99.90;;;5.53;100.00;98604.19;5573410;22;20511;-80
2021/12/08 07:34:54;;;;;;;9.57;2.30;;;7.30;99.90;;;5.53;100.00;98604.19;5045957;28;20152;-81
2021/12/08 07:37:27;;;;;;;14.23;2.50;;;7.30;99.90;;;5.56;100.00;98616.44;5069248;28;20133;-80
2021/12/08 07:40:04;;;;;;;9.40;2.40;;;7.30;99.90;;;5.48;100.00;98623.69;5069812;28;20056;-80
2021/12/08 07:42:35;;;;;;;12.25;2.90;;;7.20;99.90;;;5.43;100.00;98614.53;5068188;28;20048;-83
2021/12/08 07:45:14;;;;;;;7.70;2.67;;;7.30;99.90;;;5.45;100.00;98629.47;5082440;22;20028;-87
2021/12/08 07:47:42;;;;;;;7.65;2.75;;;7.30;99.90;;;5.39;100.00;98627.56;5048458;28;20118;-87
2021/12/08 07:50:18;;;;;;;12.10;2.90;;;7.30;99.90;;;5.43;100.00;98626.13;5046550;28;20040;-88
2021/12/08 07:52:50;;;;;;;7.90;2.17;;;7.20;99.90;;;5.42;100.00;98613.66;5048571;28;20040;-88
2021/12/08 07:55:24;;;;;;;10.00;2.60;;;7.20;99.90;;;5.40;100.00;98621.13;5055943;28;20488;-87
2021/12/08 07:57:53;;;;;;;11.48;2.53;;;7.20;99.90;;;5.41;100.00;98616.59;5049578;28;20056;-89
2021/12/08 08:00:32;;;;;;;10.65;2.65;;;7.20;99.90;;;5.46;100.00;98635.69;5048487;28;20377;-87
2021/12/08 08:03:01;;;;;;;8.73;2.38;;;7.20;99.90;;;5.40;100.00;98637.31;5049993;28;20149;-88
2021/12/08 08:05:32;;;;;;;10.98;2.58;;;7.20;99.90;;;5.42;100.00;98645.22;5043921;28;20041;-88
2021/12/08 08:08:10;;;;;;;10.68;2.50;;;7.20;99.90;;;5.43;100.00;98652.28;5036903;28;20132;-88
2021/12/08 08:10:44;;;;;;;12.85;2.47;;;7.20;99.90;;;5.43;100.00;98647.72;5049938;28;20057;-87
2021/12/08 08:13:16;;;;;;;10.05;2.63;;;7.20;99.90;;;5.44;100.00;98653.94;5049472;28;20048;-88
2021/12/08 08:15:51;;;;;;;10.98;2.65;;;7.10;99.90;;;5.45;100.00;98655.63;5032009;28;20134;-88
2021/12/08 08:18:25;;;;;;;9.30;2.22;;;7.10;99.90;;;5.46;100.00;98652.72;5048357;28;20044;-88
2021/12/08 08:21:02;;;;;;;9.32;2.40;;;7.10;99.90;;;5.44;100.00;98659.34;5045562;28;20053;-95
2021/12/08 08:23:32;;;;;;;11.88;2.35;;;7.20;99.90;;;5.47;100.00;98654.38;5049811;28;20036;-87
2021/12/08 08:26:05;;;;;;;9.75;2.60;;;7.20;99.90;;;5.41;100.00;98649.78;5049499;28;20049;-87
2021/12/08 08:28:34;;;;;;;11.45;2.65;;;7.20;99.90;;;5.43;100.00;98653.13;5049796;28;20044;-86
2021/12/08 08:31:13;;;;;;;8.80;2.30;;;7.20;99.90;;;5.47;100.00;98659.78;5049776;28;20274;-87
2021/12/08 08:33:43;;;;;;;8.07;2.35;;;7.20;99.90;;;5.53;100.00;98654.63;5055645;28;20076;-86
2021/12/08 08:36:15;;;;;;;7.78;2.17;;;7.20;99.90;;;5.52;100.00;98658.34;5065662;28;20131;-86
2021/12/08 08:38:50;;;;;;;10.45;2.60;;;7.20;99.90;;;5.52;100.00;98650.25;5053067;28;20041;-86
2021/12/08 08:41:22;;;;;;;9.70;2.75;;;7.30;99.90;;;5.57;100.00;98658.59;5045800;28;20064;-86
2021/12/08 08:43:54;;;;;;;9.70;2.60;;;7.20;99.90;;;5.56;100.00;98662.31;5052621;28;20566;-86
2021/12/08 08:46:28;;;;;;;7.35;2.78;;;7.30;99.90;;;5.56;100.00;98667.72;5049847;28;20049;-86
2021/12/08 08:49:02;;;;;;;9.73;2.30;;;7.30;99.90;;;5.60;100.00;98660.91;5048030;28;20071;-86
2021/12/08 08:51:34;;;;;;;14.15;2.58;;;7.30;99.90;;;5.63;100.00;98663.19;5049052;28;20508;-86
2021/12/08 08:54:08;;;;;;;7.32;2.25;;;7.30;99.90;;;5.64;100.00;98678.38;5054058;28;20072;-86
2021/12/08 08:56:41;;;;;;;11.43;2.30;;;7.30;99.90;;;5.66;100.00;98657.41;5038611;28;20118;-86
2021/12/08 08:59:13;;;;;;;11.63;2.60;;;7.30;99.90;;;5.69;100.00;98657.00;5039649;28;20044;-86
2021/12/08 09:01:47;;;;;;;8.55;2.22;;;7.30;99.90;;;5.74;100.00;98653.72;5028210;28;20122;-86
2021/12/08 09:04:19;;;;;;;10.95;3.05;;;7.40;99.90;;;5.77;100.00;98658.69;5047053;28;20044;-86
2021/12/08 09:06:51;;;;;;;12.73;2.92;;;7.40;99.90;;;5.75;100.00;98642.72;5055360;28;20542;-86
2021/12/08 09:09:29;;;;;;;11.82;2.45;;;7.40;99.90;;;5.76;100.00;98652.47;5049109;28;20598;-86
2021/12/08 09:12:00;;;;;;;11.27;2.65;;;7.40;99.90;;;5.78;100.00;98663.06;5048784;28;20041;-86
2021/12/08 09:14:35;;;;;;;8.27;2.67;;;7.40;99.90;;;5.76;100.00;98665.97;5057190;28;20056;-86
2021/12/08 09:17:07;;;;;;;10.88;2.30;;;7.40;99.90;;;5.79;100.00;98662.88;5028891;28;20049;-86
2021/12/08 09:19:42;;;;;;;9.98;2.38;;;7.40;99.90;;;5.81;100.00;98666.22;5041407;28;20057;-85
2021/12/08 09:22:18;;;;;;;12.55;2.10;;;7.40;99.90;;;5.84;100.00;98671.19;5048802;28;20213;-86
2021/12/08 09:24:54;;;;;;;9.32;2.17;;;7.50;99.90;;;5.87;100.00;98670.81;5053973;28;20045;-86
2021/12/08 09:27:27;;;;;;;8.35;2.45;;;7.50;99.90;;;5.90;100.00;98682.22;5047380;28;20500;-86
2021/12/08 09:30:06;;;;;;;8.15;2.17;;;7.50;99.90;;;5.85;100.00;98683.66;5044256;28;20775;-86
2021/12/08 09:32:39;;;;;;;11.68;2.70;;;7.50;99.90;;;5.89;100.00;98705.72;5046123;28;20147;-86
2021/12/08 09:35:16;;;;;;;12.32;2.63;;;7.50;99.90;;;5.86;100.00;98700.69;5041407;28;20048;-87
2021/12/08 09:37:48;;;;;;;13.70;2.70;;;7.50;99.90;;;5.88;100.00;98710.28;5040919;28;20052;-86
2021/12/08 09:40:27;;;;;;;10.90;2.70;;;7.50;99.90;;;5.91;100.00;98702.81;5048893;28;20048;-86
2021/12/08 09:42:59;;;;;;;7.75;2.40;;;7.60;99.90;;;5.94;100.00;98699.69;5048150;28;20037;-86
2021/12/08 09:45:33;;;;;;;15.32;2.40;;;7.50;99.90;;;5.91;100.00;98692.00;5050269;28;20040;-86
2021/12/08 09:48:03;;;;;;;11.80;2.78;;;7.50;99.90;;;5.92;100.00;98688.25;5048422;28;20446;-86
2021/12/08 09:50:31;;;;;;;13.00;2.60;;;7.60;99.90;;;5.95;100.00;98695.97;5047796;28;20127;-86
2021/12/08 09:52:59;;;;;;;14.43;3.10;;;7.60;99.90;;;6.01;100.00;98689.81;5045926;28;20103;-86
2021/12/08 09:55:27;;;;;;;13.15;3.40;;;7.60;99.90;;;5.98;100.00;98688.34;5037120;28;20041;-86
2021/12/08 09:57:56;;;;;;;10.40;2.35;;;7.60;99.90;;;6.00;100.00;98696.25;5046829;28;20151;-87
2021/12/08 10:00:29;;;;;;;10.15;2.17;;;7.60;99.90;;;6.04;100.00;98692.94;5048092;28;20068;-90
2021/12/08 10:02:59;;;;;;;10.55;2.60;;;7.60;99.90;;;6.07;100.00;98697.94;5046535;28;20094;-88
2021/12/08 10:05:29;;;;;;;11.52;3.05;;;7.60;99.90;;;6.10;100.00;98690.47;5064225;28;20123;-88
2021/12/08 10:07:58;;;;;;;10.93;2.78;;;7.60;99.90;;;6.12;100.00;98700.03;5068279;28;20094;-87
2021/12/08 10:10:29;;;;;;;7.60;2.15;;;7.60;99.90;;;6.14;100.00;98697.97;5034087;28;20064;-87
2021/12/08 10:12:57;;;;;;;13.18;2.70;;;7.70;99.90;;;6.16;100.00;98705.88;5027155;28;20040;-87
2021/12/08 10:15:26;;;;;;;10.63;2.58;;;7.70;99.90;;;6.21;100.00;98703.41;5055023;28;20060;-87
2021/12/08 10:17:56;;;;;;;11.82;2.33;;;7.80;99.90;;;6.23;100.00;98710.28;5048056;28;20075;-87
2021/12/08 10:20:27;;;;;;;9.55;2.50;;;7.70;99.90;;;6.24;100.00;98714.66;5029954;28;20056;-87
2021/12/08 10:23:17;;;;;;;15.35;2.90;;;7.70;99.90;;;6.23;100.00;98712.97;5029989;28;20057;-87
2021/12/08 10:25:50;;;;;;;15.25;2.80;;;7.70;99.90;;;6.26;100.00;98715.28;5048655;28;20070;-88
2021/12/08 10:28:21;;;;;;;9.40;2.10;;;7.80;99.70;;;6.28;100.00;98719.63;5047873;28;20041;-88
2021/12/08 10:30:53;;;;;;;13.38;2.53;;;7.80;99.80;;;6.32;100.00;98720.91;5047893;28;20073;-88
2021/12/08 10:33:48;;;;;;;13.50;2.70;;;7.80;99.80;;;6.31;100.00;98719.25;5047625;28;20052;-88
2021/12/08 10:36:34;;;;;;;8.75;2.33;;;7.80;99.40;;;6.33;100.00;98711.75;5028059;28;20045;-87
2021/12/08 10:39:07;;;;;;;9.52;2.35;;;7.80;99.60;;;6.31;100.00;98719.25;5031302;28;20067;-88
2021/12/08 10:41:49;;;;;;;10.30;2.72;;;7.80;99.00;;;6.34;99.40;98724.22;5028896;28;20580;-89
2021/12/08 10:44:21;;;;;;;13.52;2.80;;;7.90;99.30;;;6.37;99.67;98731.94;5027865;28;20102;-88
2021/12/08 10:46:55;;;;;;;10.18;2.65;;;7.80;99.50;;;6.37;99.20;98742.75;5044873;28;20131;-87
2021/12/08 10:54:22;;;;;;;14.50;3.15;;;7.80;99.50;;;6.38;99.55;98737.16;5047681;28;20095;-88
2021/12/08 10:54:58;;;;;;;9.05;2.50;;;7.90;99.30;;;6.47;100.00;98724.28;5057672;28;20057;-88
2021/12/08 10:57:31;;;;;;;9.90;2.72;;;7.90;99.30;;;6.46;99.87;98722.63;5047841;28;20084;-88
2021/12/08 11:00:06;;;;;;;13.27;2.72;;;7.90;99.30;;;6.45;100.00;98719.09;5047562;28;20485;-88
2021/12/08 11:02:51;;;;;;;12.60;2.55;;;7.90;99.50;;;6.45;98.90;98711.00;5047222;28;20057;-88
2021/12/08 11:05:48;;;;;;;11.75;2.45;;;7.90;99.00;;;6.50;100.00;98702.25;5062594;28;20063;-88
2021/12/08 11:08:30;;;;;;;9.13;2.40;;;8.00;99.10;;;6.49;98.67;98713.28;5061450;28;20130;-88
2021/12/08 11:11:02;;;;;;;8.23;2.25;;;8.00;99.20;;;6.49;98.41;98711.38;5067356;28;20083;-89
2021/12/08 11:13:35;;;;;;;17.83;3.30;;;8.00;98.60;;;6.49;98.41;98711.38;5045159;28;20046;-87